createdAt,value
2019-02-18T00:00:57.657Z,17.07
2019-02-18T00:03:24.740Z,18.07
2019-02-18T00:05:51.478Z,18.37
2019-02-18T00:08:18.201Z,18.63
2019-02-18T00:10:45.267Z,18.83
2019-02-18T00:13:25.127Z,17.77
2019-02-18T00:15:51.913Z,17.10
2019-02-18T00:18:18.639Z,18.13
2019-02-18T00:20:45.755Z,18.07
2019-02-18T00:23:12.533Z,18.27
2019-02-18T00:25:39.548Z,18.27
2019-02-18T00:28:06.281Z,16.30
2019-02-18T00:30:33.065Z,17.10
2019-02-18T00:32:59.803Z,18.77
2019-02-18T00:35:27.153Z,18.43
2019-02-18T00:37:54.462Z,18.00
2019-02-18T00:40:21.206Z,19.43
2019-02-18T00:42:47.833Z,21.30
2019-02-18T00:45:14.988Z,20.50
2019-02-18T00:47:41.708Z,20.07
2019-02-18T00:50:09.127Z,20.00
2019-02-18T00:52:36.017Z,19.43
2019-02-18T00:55:02.779Z,20.10
2019-02-18T00:57:29.757Z,21.07
2019-02-18T00:59:56.863Z,20.67
2019-02-18T01:02:23.587Z,21.70
2019-02-18T01:04:50.305Z,20.40
2019-02-18T01:07:16.997Z,19.80
2019-02-18T01:09:43.745Z,19.03
2019-02-18T01:12:10.727Z,19.60
2019-02-18T01:14:37.977Z,18.67
2019-02-18T01:17:04.733Z,19.57
2019-02-18T01:19:31.362Z,18.63
2019-02-18T01:21:58.434Z,18.70
2019-02-18T01:24:25.328Z,19.37
2019-02-18T01:26:52.517Z,20.67
2019-02-18T01:29:19.204Z,19.03
2019-02-18T01:31:45.831Z,19.43
2019-02-18T01:34:12.459Z,20.73
2019-02-18T01:36:39.240Z,20.10
2019-02-18T01:39:06.377Z,19.33
2019-02-18T01:41:33.096Z,20.63
2019-02-18T01:43:59.796Z,19.27
2019-02-18T01:46:26.418Z,19.80
2019-02-18T01:48:53.293Z,18.67
2019-02-18T01:51:20.416Z,19.87
2019-02-18T01:53:47.111Z,20.63
2019-02-18T01:56:13.844Z,20.43
2019-02-18T01:58:41.271Z,20.90
2019-02-18T02:01:08.102Z,19.50
2019-02-18T02:03:34.741Z,18.30
2019-02-18T02:06:01.611Z,18.53
2019-02-18T02:08:28.620Z,18.73
2019-02-18T02:10:55.437Z,19.53
2019-02-18T02:13:41.736Z,19.67
2019-02-18T02:16:21.373Z,21.07
2019-02-18T02:18:48.251Z,21.43
2019-02-18T02:21:14.968Z,20.93
2019-02-18T02:23:41.694Z,19.53
2019-02-18T02:26:08.598Z,21.43
2019-02-18T02:28:35.502Z,21.07
2019-02-18T02:31:02.281Z,19.30
2019-02-18T02:33:29.139Z,19.60
2019-02-18T02:35:55.862Z,20.07
2019-02-18T02:38:22.594Z,19.47
2019-02-18T02:40:49.441Z,18.60
2019-02-18T02:43:16.159Z,20.60
2019-02-18T02:45:42.781Z,21.43
2019-02-18T02:48:09.655Z,18.33
2019-02-18T02:50:36.990Z,18.90
2019-02-18T02:53:03.758Z,20.47
2019-02-18T02:55:30.544Z,19.33
2019-02-18T02:57:57.458Z,21.13
2019-02-18T03:00:24.097Z,20.70
2019-02-18T03:02:50.808Z,19.07
2019-02-18T03:05:17.617Z,18.97
2019-02-18T03:07:44.768Z,19.23
2019-02-18T03:10:11.553Z,18.60
2019-02-18T03:12:38.335Z,20.23
2019-02-18T03:15:05.255Z,21.07
2019-02-18T03:17:32.476Z,20.70
2019-02-18T03:19:59.520Z,19.53
2019-02-18T03:22:26.667Z,19.63
2019-02-18T03:25:14.210Z,20.67
2019-02-18T03:27:40.986Z,19.03
2019-02-18T03:30:46.944Z,20.87
2019-02-18T03:33:16.242Z,18.63
2019-02-18T03:35:42.976Z,20.77
2019-02-18T03:38:09.671Z,20.40
2019-02-18T03:40:36.505Z,19.87
2019-02-18T03:43:03.338Z,21.57
2019-02-18T03:45:30.426Z,22.30
2019-02-18T03:47:57.146Z,22.00
2019-02-18T03:50:24.116Z,20.80
2019-02-18T03:52:50.922Z,20.37
2019-02-18T03:55:17.563Z,20.87
2019-02-18T03:57:44.940Z,20.37
2019-02-18T04:00:52.768Z,21.20
2019-02-18T04:03:19.407Z,20.67
2019-02-18T04:05:46.193Z,22.03
2019-02-18T04:08:13.187Z,21.53
2019-02-18T04:10:40.170Z,21.57
2019-02-18T04:13:06.916Z,22.30
2019-02-18T04:15:33.795Z,21.83
2019-02-18T04:18:00.901Z,21.37
2019-02-18T04:20:27.645Z,20.83
2019-02-18T04:22:54.479Z,21.33
2019-02-18T04:25:21.604Z,21.47
2019-02-18T04:27:48.337Z,22.87
2019-02-18T04:30:15.368Z,22.80
2019-02-18T04:32:42.026Z,20.90
2019-02-18T04:35:09.180Z,21.73
2019-02-18T04:37:36.182Z,21.07
2019-02-18T04:40:03.037Z,21.07
2019-02-18T04:42:29.933Z,22.30
2019-02-18T04:44:57.152Z,21.37
2019-02-18T04:47:23.777Z,22.10
2019-02-18T04:49:50.509Z,22.37
2019-02-18T04:52:17.306Z,21.37
2019-02-18T04:54:43.924Z,22.07
2019-02-18T04:57:10.560Z,22.10
2019-02-18T04:59:37.333Z,21.17
2019-02-18T05:02:04.632Z,21.47
2019-02-18T05:04:56.361Z,21.47
2019-02-18T05:07:23.553Z,20.07
2019-02-18T05:09:50.202Z,21.47
2019-02-18T05:12:17.393Z,21.87
2019-02-18T05:14:44.409Z,24.37
2019-02-18T05:17:11.341Z,23.63
2019-02-18T05:19:38.087Z,22.57
2019-02-18T05:22:04.811Z,23.10
2019-02-18T05:24:31.826Z,22.27
2019-02-18T05:26:58.656Z,22.40
2019-02-18T05:29:25.290Z,21.43
2019-02-18T05:31:52.273Z,22.40
2019-02-18T05:34:19.075Z,22.80
2019-02-18T05:36:46.112Z,22.00
2019-02-18T05:39:18.178Z,21.13
2019-02-18T05:41:41.693Z,20.70
2019-02-18T05:44:08.571Z,21.63
2019-02-18T05:46:35.488Z,21.00
2019-02-18T05:49:02.179Z,21.60
2019-02-18T05:51:29.088Z,20.60
2019-02-18T05:53:55.762Z,21.73
2019-02-18T05:56:22.876Z,20.90
2019-02-18T05:58:50.020Z,21.87
2019-02-18T06:04:05.943Z,20.90
2019-02-18T06:06:32.667Z,21.80
2019-02-18T06:08:59.771Z,22.90
2019-02-18T06:11:26.812Z,22.03
2019-02-18T06:13:53.441Z,22.83
2019-02-18T06:16:20.420Z,21.47
2019-02-18T06:18:47.094Z,21.67
2019-02-18T06:21:26.555Z,21.33
2019-02-18T06:23:53.736Z,21.03
2019-02-18T06:26:20.352Z,21.60
2019-02-18T06:28:47.408Z,20.87
2019-02-18T06:31:14.179Z,21.40
2019-02-18T06:33:41.031Z,22.43
2019-02-18T06:36:07.697Z,20.97
2019-02-18T06:38:34.798Z,21.43
2019-02-18T06:41:01.522Z,21.33
2019-02-18T06:43:28.719Z,21.07
2019-02-18T06:46:15.162Z,20.47
2019-02-18T06:49:01.414Z,20.70
2019-02-18T06:51:28.536Z,20.27
2019-02-18T06:53:55.565Z,20.33
2019-02-18T06:59:22.762Z,21.07
2019-02-18T07:02:09.727Z,20.73
2019-02-18T07:04:56.253Z,20.77
2019-02-18T07:07:42.752Z,20.93
2019-02-18T07:10:29.216Z,23.40
2019-02-18T07:12:56.650Z,23.23
2019-02-18T07:15:23.391Z,23.63
2019-02-18T07:17:50.347Z,22.10
2019-02-18T07:20:17.284Z,21.63
2019-02-18T07:22:44.524Z,20.63
2019-02-18T07:25:11.440Z,21.50
2019-02-18T07:27:38.364Z,21.87
2019-02-18T07:30:07.691Z,21.23
2019-02-18T07:32:34.352Z,20.97
2019-02-18T07:35:00.992Z,21.73
2019-02-18T07:37:28.354Z,21.50
2019-02-18T07:40:01.801Z,20.53
2019-02-18T07:42:24.290Z,20.07
2019-02-18T07:44:51.357Z,19.57
2019-02-18T07:47:18.182Z,19.43
2019-02-18T07:50:05.036Z,19.73
2019-02-18T07:52:31.914Z,19.23
2019-02-18T07:54:58.539Z,19.87
2019-02-18T07:57:25.261Z,19.47
2019-02-18T07:59:52.092Z,19.57
2019-02-18T08:02:19.745Z,19.07
2019-02-18T08:04:46.474Z,19.50
2019-02-18T08:07:14.272Z,18.23
2019-02-18T08:09:41.415Z,18.70
2019-02-18T08:12:27.738Z,17.57
2019-02-18T08:14:54.460Z,18.20
2019-02-18T08:17:21.497Z,17.80
2019-02-18T08:19:48.421Z,18.63
2019-02-18T08:22:15.211Z,17.33
2019-02-18T08:24:55.566Z,17.97
2019-02-18T08:27:22.288Z,18.23
2019-02-18T08:29:48.901Z,18.03
2019-02-18T08:32:15.592Z,18.10
2019-02-18T08:34:42.482Z,18.60
2019-02-18T08:37:09.216Z,18.33
2019-02-18T08:39:36.297Z,19.07
2019-02-18T08:42:03.015Z,18.27
2019-02-18T08:44:29.882Z,18.37
2019-02-18T08:46:59.145Z,17.77
2019-02-18T08:49:25.881Z,19.00
2019-02-18T08:51:52.655Z,18.83
2019-02-18T08:54:19.726Z,19.00
2019-02-18T08:56:47.181Z,19.03
2019-02-18T08:59:13.964Z,19.10
2019-02-18T09:01:40.775Z,18.80
2019-02-18T09:04:08.343Z,18.83
2019-02-18T09:06:35.072Z,19.20
2019-02-18T09:09:02.012Z,18.20
2019-02-18T09:11:28.748Z,18.10
2019-02-18T09:13:55.486Z,18.30
2019-02-18T09:16:22.579Z,19.73
2019-02-18T09:18:49.315Z,18.47
2019-02-18T09:21:15.934Z,18.77
2019-02-18T09:26:23.001Z,18.83
2019-02-18T09:28:49.725Z,19.23
2019-02-18T09:34:05.367Z,17.53
2019-02-18T09:36:32.092Z,19.60
2019-02-18T09:38:58.855Z,19.10
2019-02-18T09:41:25.655Z,18.80
2019-02-18T09:43:52.284Z,17.60
2019-02-18T09:46:19.016Z,16.83
2019-02-18T09:48:46.388Z,17.37
2019-02-18T09:51:14.348Z,17.23
2019-02-18T09:53:41.070Z,17.70
2019-02-18T09:56:07.871Z,17.77
2019-02-18T09:58:34.611Z,16.47
2019-02-18T10:01:01.326Z,17.13
2019-02-18T10:03:31.893Z,17.87
2019-02-18T10:05:56.758Z,16.77
2019-02-18T10:08:23.481Z,16.43
2019-02-18T10:10:55.993Z,15.93
2019-02-18T10:13:18.890Z,16.40
2019-02-18T10:15:45.524Z,16.13
2019-02-18T10:18:12.289Z,16.33
2019-02-18T10:20:39.209Z,17.00
2019-02-18T10:23:05.966Z,17.07
2019-02-18T10:25:32.715Z,17.17
2019-02-18T10:28:12.087Z,15.50
2019-02-18T10:30:38.909Z,15.13
2019-02-18T10:33:05.849Z,16.40
2019-02-18T10:35:33.086Z,15.50
2019-02-18T10:37:59.870Z,15.80
2019-02-18T10:40:26.639Z,15.40
2019-02-18T10:42:53.997Z,16.83
2019-02-18T10:45:20.908Z,15.03
2019-02-18T10:47:47.529Z,14.40
2019-02-18T10:50:14.381Z,14.93
2019-02-18T10:52:41.333Z,15.10
2019-02-18T10:55:09.222Z,15.57
2019-02-18T10:57:38.315Z,16.20
2019-02-18T11:00:08.464Z,15.77
2019-02-18T11:02:35.577Z,14.60
2019-02-18T11:05:03.688Z,16.17
2019-02-18T11:07:31.324Z,15.40
2019-02-18T11:09:58.418Z,15.23
2019-02-18T11:12:25.533Z,15.10
2019-02-18T11:14:52.759Z,14.53
2019-02-18T11:17:20.466Z,14.57
2019-02-18T11:19:47.583Z,15.40
2019-02-18T11:22:15.106Z,16.10
2019-02-18T11:24:42.637Z,15.80
2019-02-18T11:27:10.082Z,15.77
2019-02-18T11:29:37.711Z,15.53
2019-02-18T11:32:04.919Z,15.43
2019-02-18T11:34:32.085Z,15.23
2019-02-18T11:36:59.285Z,14.90
2019-02-18T11:39:27.514Z,15.03
2019-02-18T11:41:55.222Z,15.80
2019-02-18T11:44:22.448Z,14.83
2019-02-18T11:47:10.875Z,14.80
2019-02-18T11:49:37.669Z,14.80
2019-02-18T11:52:04.883Z,15.70
2019-02-18T11:54:51.457Z,15.97
2019-02-18T11:57:18.678Z,15.93
2019-02-18T11:59:45.580Z,14.67
2019-02-18T12:02:14.272Z,14.63
2019-02-18T12:04:41.141Z,14.47
2019-02-18T12:07:07.895Z,14.60
2019-02-18T12:09:34.695Z,15.07
2019-02-18T12:12:21.273Z,15.53
2019-02-18T12:14:48.416Z,13.87
2019-02-18T12:17:20.533Z,14.37
2019-02-18T12:20:07.061Z,14.77
2019-02-18T12:22:34.631Z,13.23
2019-02-18T12:25:01.741Z,14.77
2019-02-18T12:27:29.325Z,13.83
2019-02-18T12:29:58.346Z,14.83
2019-02-18T12:32:25.520Z,13.20
2019-02-18T12:34:52.380Z,13.80
2019-02-18T12:37:19.374Z,13.23
2019-02-18T12:39:46.213Z,12.83
2019-02-18T12:42:13.286Z,13.20
2019-02-18T12:44:39.908Z,12.73
2019-02-18T12:47:08.551Z,13.20
2019-02-18T12:49:35.416Z,13.40
2019-02-18T12:52:02.280Z,13.07
2019-02-18T12:54:29.044Z,13.20
2019-02-18T12:56:55.893Z,13.10
2019-02-18T12:59:22.813Z,13.07
2019-02-18T13:01:49.549Z,13.77
2019-02-18T13:04:16.231Z,13.10
2019-02-18T13:06:42.955Z,12.87
2019-02-18T13:09:10.268Z,12.67
2019-02-18T13:11:37.362Z,13.40
2019-02-18T13:14:04.097Z,13.27
2019-02-18T13:16:31.253Z,13.73
2019-02-18T13:18:58.155Z,13.53
2019-02-18T13:21:25.166Z,12.87
2019-02-18T13:23:52.640Z,12.60
2019-02-18T13:26:19.517Z,13.73
2019-02-18T13:28:46.246Z,13.07
2019-02-18T13:31:13.280Z,13.80
2019-02-18T13:33:52.443Z,12.77
2019-02-18T13:36:19.167Z,13.73
2019-02-18T13:38:45.891Z,13.23
2019-02-18T13:41:13.469Z,12.73
2019-02-18T13:43:40.103Z,13.57
2019-02-18T13:46:07.133Z,12.13
2019-02-18T13:48:34.097Z,14.00
2019-02-18T13:51:00.825Z,12.23
2019-02-18T13:53:27.557Z,12.87
2019-02-18T13:55:54.709Z,14.07
2019-02-18T13:58:21.540Z,34.93
2019-02-18T14:00:48.174Z,26.73
2019-02-18T14:03:14.862Z,13.40
2019-02-18T14:05:41.833Z,15.20
2019-02-18T14:08:08.462Z,20.17
2019-02-18T14:10:35.279Z,23.33
2019-02-18T14:13:01.998Z,12.43
2019-02-18T14:15:28.740Z,12.07
2019-02-18T14:17:55.871Z,13.07
2019-02-18T14:20:22.619Z,14.20
2019-02-18T14:22:49.737Z,13.63
2019-02-18T14:25:16.948Z,14.53
2019-02-18T14:27:44.210Z,15.70
2019-02-18T14:30:12.338Z,17.27
2019-02-18T14:32:39.536Z,12.83
2019-02-18T14:35:18.886Z,11.73
2019-02-18T14:37:46.312Z,12.63
2019-02-18T14:40:34.551Z,11.70
2019-02-18T14:43:01.676Z,13.10
2019-02-18T14:45:28.956Z,13.37
2019-02-18T14:47:55.931Z,13.17
2019-02-18T14:50:22.771Z,12.53
2019-02-18T14:52:50.391Z,13.17
2019-02-18T14:55:17.643Z,12.27
2019-02-18T14:58:04.067Z,11.70
2019-02-18T15:00:30.833Z,10.70
2019-02-18T15:02:57.604Z,10.80
2019-02-18T15:05:25.436Z,11.40
2019-02-18T15:07:52.450Z,10.47
2019-02-18T15:10:19.455Z,11.77
2019-02-18T15:12:46.235Z,13.33
2019-02-18T15:15:13.249Z,21.63
2019-02-18T15:17:40.117Z,11.67
2019-02-18T15:20:07.140Z,17.20
2019-02-18T15:22:35.766Z,27.97
2019-02-18T15:25:02.608Z,18.40
2019-02-18T15:27:29.389Z,14.30
2019-02-18T15:29:56.152Z,13.50
2019-02-18T15:32:22.868Z,12.57
2019-02-18T15:34:50.131Z,11.20
2019-02-18T15:37:29.649Z,62.20
2019-02-18T15:39:56.830Z,31.00
2019-02-18T15:42:23.549Z,48.13
2019-02-18T15:44:50.265Z,39.93
2019-02-18T15:47:17.181Z,17.20
2019-02-18T15:49:44.100Z,18.63
2019-02-18T15:52:11.452Z,11.13
2019-02-18T15:54:38.237Z,11.23
2019-02-18T15:57:05.161Z,11.97
2019-02-18T15:59:31.942Z,10.90
2019-02-18T16:01:58.755Z,11.57
2019-02-18T16:04:25.612Z,9.73
2019-02-18T16:06:52.542Z,11.07
2019-02-18T16:09:19.480Z,12.23
2019-02-18T16:11:46.691Z,13.10
2019-02-18T16:14:13.874Z,9.97
2019-02-18T16:16:40.798Z,10.40
2019-02-18T16:19:07.608Z,9.13
2019-02-18T16:21:34.508Z,10.27
2019-02-18T16:24:01.195Z,10.40
2019-02-18T16:26:27.949Z,9.70
2019-02-18T16:28:54.979Z,10.03
2019-02-18T16:31:21.771Z,10.37
2019-02-18T16:33:49.815Z,10.60
2019-02-18T16:36:16.856Z,11.73
2019-02-18T16:38:43.862Z,12.37
2019-02-18T16:41:11.066Z,16.77
2019-02-18T16:43:39.776Z,15.60
2019-02-18T16:46:06.628Z,16.13
2019-02-18T16:48:33.570Z,15.60
2019-02-18T16:51:00.472Z,16.67
2019-02-18T16:53:27.150Z,16.43
2019-02-18T16:55:54.111Z,17.33
2019-02-18T16:58:20.834Z,17.20
2019-02-18T17:00:47.896Z,16.43
2019-02-18T17:03:15.011Z,13.60
2019-02-18T17:05:41.993Z,13.60
2019-02-18T17:08:11.398Z,13.53
2019-02-18T17:10:39.454Z,13.27
2019-02-18T17:13:08.410Z,12.47
2019-02-18T17:15:35.594Z,12.37
2019-02-18T17:18:02.321Z,12.00
2019-02-18T17:20:29.570Z,13.50
2019-02-18T17:22:56.437Z,13.90
2019-02-18T17:25:25.347Z,14.63
2019-02-18T17:27:52.191Z,15.87
2019-02-18T17:30:19.241Z,16.60
2019-02-18T17:32:45.984Z,18.00
2019-02-18T17:35:12.742Z,19.77
2019-02-18T17:37:39.541Z,20.63
2019-02-18T17:40:08.126Z,21.80
2019-02-18T17:42:54.821Z,22.03
2019-02-18T17:45:21.896Z,23.33
2019-02-18T17:47:48.997Z,23.03
2019-02-18T17:50:16.436Z,22.00
2019-02-18T17:52:44.408Z,22.97
2019-02-18T17:55:11.928Z,21.30
2019-02-18T17:57:39.364Z,21.30
2019-02-18T18:00:09.200Z,20.07
2019-02-18T18:02:36.750Z,20.53
2019-02-18T18:05:44.724Z,19.90
2019-02-18T18:08:11.525Z,20.20
2019-02-18T18:10:38.578Z,20.03
2019-02-18T18:13:05.651Z,19.37
2019-02-18T18:15:32.276Z,19.00
2019-02-18T18:17:59.567Z,19.93
2019-02-18T18:20:26.427Z,18.53
2019-02-18T18:22:55.347Z,22.23
2019-02-18T18:25:22.437Z,20.40
2019-02-18T18:27:51.015Z,20.83
2019-02-18T18:30:17.971Z,21.00
2019-02-18T18:32:45.319Z,21.37
2019-02-18T18:35:13.519Z,20.73
2019-02-18T18:37:41.391Z,19.83
2019-02-18T18:40:10.031Z,20.90
2019-02-18T18:42:56.395Z,21.30
2019-02-18T18:45:23.208Z,21.20
2019-02-18T18:48:09.581Z,19.50
2019-02-18T18:50:36.308Z,20.43
2019-02-18T18:53:03.423Z,20.93
2019-02-18T18:55:30.313Z,20.77
2019-02-18T18:57:57.190Z,19.60
2019-02-18T19:00:43.856Z,19.93
2019-02-18T19:03:10.589Z,20.00
2019-02-18T19:05:37.689Z,20.83
2019-02-18T19:08:04.774Z,20.80
2019-02-18T19:10:51.378Z,19.97
2019-02-18T19:13:18.819Z,21.23
2019-02-18T19:15:49.632Z,20.27
2019-02-18T19:18:14.626Z,21.97
2019-02-18T19:21:01.018Z,25.07
2019-02-18T19:23:27.769Z,23.97
2019-02-18T19:25:54.807Z,27.67
2019-02-18T19:28:41.246Z,29.57
2019-02-18T19:31:08.658Z,29.20
2019-02-18T19:33:54.966Z,28.37
2019-02-18T19:36:22.151Z,29.07
2019-02-18T19:38:49.280Z,28.07
2019-02-18T19:41:16.467Z,26.17
2019-02-18T19:43:56.785Z,27.33
2019-02-18T19:46:24.245Z,25.80
2019-02-18T19:48:51.341Z,26.97
2019-02-18T19:51:18.118Z,25.87
2019-02-18T19:53:44.918Z,25.47
2019-02-18T19:56:12.650Z,26.73
2019-02-18T19:58:39.492Z,26.20
2019-02-18T20:01:06.845Z,24.90
2019-02-18T20:03:33.894Z,25.50
2019-02-18T20:06:01.222Z,24.93
2019-02-18T20:08:28.028Z,25.57
2019-02-18T20:10:55.099Z,25.20
2019-02-18T20:13:21.856Z,26.07
2019-02-18T20:15:48.659Z,24.50
2019-02-18T20:18:15.704Z,24.53
2019-02-18T20:20:42.565Z,24.23
2019-02-18T20:23:11.834Z,23.40
2019-02-18T20:25:39.265Z,21.27
2019-02-18T20:28:06.204Z,21.60
2019-02-18T20:30:33.282Z,21.17
2019-02-18T20:33:00.126Z,20.90
2019-02-18T20:35:27.258Z,21.23
2019-02-18T20:37:54.894Z,22.10
2019-02-18T20:40:22.103Z,23.63
2019-02-18T20:42:48.916Z,22.07
2019-02-18T20:45:28.752Z,21.07
2019-02-18T20:47:55.909Z,21.10
2019-02-18T20:50:23.362Z,23.53
2019-02-18T20:52:50.723Z,21.93
2019-02-18T20:55:19.203Z,22.53
2019-02-18T20:57:46.422Z,21.53
2019-02-18T21:00:15.997Z,21.10
2019-02-18T21:02:44.067Z,21.50
2019-02-18T21:05:11.190Z,21.47
2019-02-18T21:07:38.374Z,22.90
2019-02-18T21:10:05.743Z,20.73
2019-02-18T21:12:32.907Z,22.87
2019-02-18T21:15:19.997Z,23.20
2019-02-18T21:17:47.559Z,22.53
2019-02-18T21:20:14.807Z,22.77
2019-02-18T21:22:42.353Z,22.13
2019-02-18T21:25:09.588Z,21.17
2019-02-18T21:27:44.076Z,20.80
2019-02-18T21:30:11.273Z,21.27
2019-02-18T21:32:39.988Z,21.40
2019-02-18T21:35:07.207Z,22.43
2019-02-18T21:37:33.874Z,19.47
2019-02-18T21:40:01.046Z,19.77
2019-02-18T21:42:27.764Z,20.90
2019-02-18T21:44:55.021Z,21.93
2019-02-18T21:47:22.207Z,20.97
2019-02-18T21:50:11.040Z,20.13
2019-02-18T21:52:38.107Z,21.67
2019-02-18T21:55:46.367Z,21.13
2019-02-18T21:58:14.704Z,21.83
2019-02-18T22:00:41.940Z,20.77
2019-02-18T22:03:08.659Z,21.00
2019-02-18T22:05:35.327Z,21.00
2019-02-18T22:08:21.759Z,21.17
2019-02-18T22:10:48.521Z,22.30
2019-02-18T22:13:17.183Z,20.90
2019-02-18T22:15:44.409Z,21.17
2019-02-18T22:18:11.331Z,21.07
2019-02-18T22:20:38.503Z,20.23
2019-02-18T22:23:05.638Z,20.83
2019-02-18T22:25:32.617Z,19.90
2019-02-18T22:27:59.659Z,21.53
2019-02-18T22:30:26.800Z,18.60
2019-02-18T22:32:55.469Z,20.13
2019-02-18T22:35:22.235Z,19.00
2019-02-18T22:37:48.957Z,19.63
2019-02-18T22:40:15.716Z,18.70
2019-02-18T22:43:02.154Z,18.70
2019-02-18T22:45:29.555Z,19.60
2019-02-18T22:47:57.417Z,19.90
2019-02-18T22:50:43.877Z,20.50
2019-02-18T22:53:10.959Z,19.17
2019-02-18T22:55:38.123Z,19.30
2019-02-18T22:58:05.125Z,20.47
2019-02-18T23:01:17.064Z,20.80
2019-02-18T23:03:44.308Z,19.77
2019-02-18T23:06:11.103Z,19.93
2019-02-18T23:08:39.767Z,20.43
2019-02-18T23:11:06.721Z,19.57
2019-02-18T23:13:33.606Z,20.20
2019-02-18T23:16:00.354Z,20.17
2019-02-18T23:18:27.295Z,20.93
2019-02-18T23:20:54.289Z,19.70
2019-02-18T23:24:02.452Z,20.27
2019-02-18T23:26:29.121Z,19.53
2019-02-18T23:28:55.866Z,18.60
2019-02-18T23:31:22.671Z,18.87
2019-02-18T23:33:49.602Z,19.93
2019-02-18T23:36:16.369Z,20.17
2019-02-18T23:38:43.258Z,20.40
2019-02-18T23:41:29.929Z,18.80
2019-02-18T23:43:56.748Z,18.17
2019-02-18T23:46:23.814Z,18.43
2019-02-18T23:49:03.070Z,18.83
2019-02-18T23:51:29.851Z,18.40
2019-02-18T23:53:56.999Z,18.80
2019-02-18T23:56:43.845Z,18.40
2019-02-18T23:59:10.625Z,18.67
